createdAt,value
2018-06-29T00:00:44.751Z,21.20
2018-06-29T00:01:44.937Z,21.25
2018-06-29T00:02:45.095Z,21.22
2018-06-29T00:03:45.277Z,21.18
2018-06-29T00:04:45.462Z,21.18
2018-06-29T00:05:45.619Z,21.20
2018-06-29T00:06:45.776Z,21.14
2018-06-29T00:07:45.959Z,21.17
2018-06-29T00:08:46.157Z,21.07
2018-06-29T00:09:46.327Z,21.07
2018-06-29T00:10:46.510Z,21.06
2018-06-29T00:11:46.669Z,21.05
2018-06-29T00:12:46.874Z,21.05
2018-06-29T00:13:47.036Z,21.06
2018-06-29T00:14:47.245Z,21.00
2018-06-29T00:15:47.458Z,21.05
2018-06-29T00:16:47.568Z,20.96
2018-06-29T00:17:47.748Z,20.97
2018-06-29T00:18:47.965Z,20.87
2018-06-29T00:19:48.109Z,20.80
2018-06-29T00:20:48.278Z,20.78
2018-06-29T00:21:48.459Z,20.70
2018-06-29T00:22:48.650Z,20.78
2018-06-29T00:23:48.820Z,20.81
2018-06-29T00:24:48.997Z,20.81
2018-06-29T00:25:49.190Z,20.75
2018-06-29T00:26:49.319Z,20.67
2018-06-29T00:27:49.499Z,20.72
2018-06-29T00:28:49.677Z,20.74
2018-06-29T00:29:49.845Z,20.78
2018-06-29T00:30:50.032Z,20.69
2018-06-29T00:31:50.218Z,20.52
2018-06-29T00:32:50.395Z,20.58
2018-06-29T00:33:50.579Z,20.62
2018-06-29T00:34:50.762Z,20.65
2018-06-29T00:35:50.926Z,20.60
2018-06-29T00:36:51.111Z,20.56
2018-06-29T00:37:51.275Z,20.58
2018-06-29T00:38:51.447Z,20.56
2018-06-29T00:39:51.619Z,20.58
2018-06-29T00:40:51.788Z,20.47
2018-06-29T00:41:51.939Z,20.44
2018-06-29T00:42:52.103Z,20.52
2018-06-29T00:43:52.289Z,20.48
2018-06-29T00:44:52.459Z,20.56
2018-06-29T00:45:52.704Z,20.52
2018-06-29T00:46:52.813Z,20.62
2018-06-29T00:47:52.982Z,20.62
2018-06-29T00:48:53.154Z,20.50
2018-06-29T00:49:53.322Z,20.36
2018-06-29T00:50:53.489Z,20.26
2018-06-29T00:51:53.679Z,20.16
2018-06-29T00:52:53.857Z,20.16
2018-06-29T00:53:54.036Z,20.25
2018-06-29T00:54:54.221Z,20.43
2018-06-29T00:55:54.413Z,20.32
2018-06-29T00:56:54.567Z,20.41
2018-06-29T00:57:54.750Z,20.25
2018-06-29T00:58:54.935Z,20.26
2018-06-29T00:59:55.113Z,20.22
2018-06-29T01:00:55.293Z,20.11
2018-06-29T01:01:55.477Z,20.13
2018-06-29T01:02:55.901Z,20.21
2018-06-29T01:03:55.856Z,20.25
2018-06-29T01:04:56.037Z,20.14
2018-06-29T01:05:56.215Z,20.24
2018-06-29T01:06:56.403Z,20.25
2018-06-29T01:07:56.582Z,20.24
2018-06-29T01:08:56.764Z,20.09
2018-06-29T01:09:56.947Z,20.11
2018-06-29T01:10:57.141Z,20.21
2018-06-29T01:11:57.315Z,20.21
2018-06-29T01:12:57.494Z,20.36
2018-06-29T01:13:57.677Z,20.31
2018-06-29T01:14:57.873Z,20.24
2018-06-29T01:15:58.053Z,20.34
2018-06-29T01:16:58.238Z,20.28
2018-06-29T01:17:58.424Z,20.26
2018-06-29T01:18:58.606Z,20.24
2018-06-29T01:19:58.785Z,20.11
2018-06-29T01:20:58.976Z,20.14
2018-06-29T01:21:59.155Z,20.13
2018-06-29T01:22:59.332Z,20.21
2018-06-29T01:23:59.513Z,20.21
2018-06-29T01:24:59.690Z,20.10
2018-06-29T01:25:59.860Z,20.26
2018-06-29T01:27:00.064Z,20.21
2018-06-29T01:28:00.259Z,20.22
2018-06-29T01:29:00.427Z,20.26
2018-06-29T01:30:00.612Z,20.13
2018-06-29T01:31:00.793Z,20.13
2018-06-29T01:32:00.975Z,20.18
2018-06-29T01:33:01.164Z,20.09
2018-06-29T01:34:01.329Z,20.18
2018-06-29T01:35:01.540Z,20.28
2018-06-29T01:36:01.702Z,20.14
2018-06-29T01:37:01.892Z,20.21
2018-06-29T01:38:02.064Z,20.16
2018-06-29T01:39:02.251Z,20.11
2018-06-29T01:40:02.443Z,20.14
2018-06-29T01:41:02.630Z,20.02
2018-06-29T01:42:02.810Z,19.94
2018-06-29T01:43:02.979Z,20.02
2018-06-29T01:44:03.407Z,19.89
2018-06-29T01:45:03.339Z,19.82
2018-06-29T01:46:03.518Z,19.70
2018-06-29T01:47:03.720Z,19.71
2018-06-29T01:48:03.878Z,19.79
2018-06-29T01:49:04.050Z,19.79
2018-06-29T01:50:04.240Z,19.73
2018-06-29T01:51:04.643Z,19.82
2018-06-29T01:52:04.590Z,19.74
2018-06-29T01:53:04.772Z,19.81
2018-06-29T01:54:04.959Z,19.82
2018-06-29T01:55:05.145Z,19.74
2018-06-29T01:56:05.324Z,19.76
2018-06-29T01:57:05.507Z,19.82
2018-06-29T01:58:05.691Z,19.86
2018-06-29T01:59:05.875Z,19.86
2018-06-29T02:00:06.057Z,19.84
2018-06-29T02:01:06.258Z,19.85
2018-06-29T02:02:06.421Z,19.85
2018-06-29T02:03:06.606Z,19.85
2018-06-29T02:04:06.769Z,19.91
2018-06-29T02:05:06.958Z,19.92
2018-06-29T02:06:07.136Z,19.89
2018-06-29T02:07:07.306Z,19.88
2018-06-29T02:08:07.519Z,19.89
2018-06-29T02:09:07.659Z,19.86
2018-06-29T02:10:07.859Z,19.85
2018-06-29T02:11:08.030Z,20.02
2018-06-29T02:12:08.213Z,19.88
2018-06-29T02:13:08.394Z,19.84
2018-06-29T02:14:08.576Z,19.85
2018-06-29T02:15:08.755Z,19.74
2018-06-29T02:16:08.955Z,19.70
2018-06-29T02:17:09.130Z,19.62
2018-06-29T02:18:09.322Z,19.64
2018-06-29T02:19:09.502Z,19.55
2018-06-29T02:20:09.696Z,19.64
2018-06-29T02:21:09.876Z,19.52
2018-06-29T02:22:10.058Z,19.49
2018-06-29T02:23:10.237Z,19.39
2018-06-29T02:24:10.422Z,19.34
2018-06-29T02:25:10.607Z,19.41
2018-06-29T02:26:10.788Z,19.44
2018-06-29T02:27:10.969Z,19.47
2018-06-29T02:28:11.155Z,19.36
2018-06-29T02:29:11.380Z,19.40
2018-06-29T02:30:11.517Z,19.40
2018-06-29T02:31:11.694Z,19.39
2018-06-29T02:32:11.867Z,19.33
2018-06-29T02:33:12.048Z,19.39
2018-06-29T02:34:12.231Z,19.44
2018-06-29T02:35:12.431Z,19.45
2018-06-29T02:36:12.597Z,19.40
2018-06-29T02:37:12.779Z,19.58
2018-06-29T02:38:12.957Z,19.70
2018-06-29T02:39:13.137Z,19.66
2018-06-29T02:40:13.314Z,19.66
2018-06-29T02:41:13.506Z,19.82
2018-06-29T02:42:13.684Z,19.82
2018-06-29T02:43:13.875Z,19.86
2018-06-29T02:44:14.054Z,19.86
2018-06-29T02:45:14.247Z,19.91
2018-06-29T02:46:14.432Z,19.91
2018-06-29T02:47:14.617Z,19.86
2018-06-29T02:48:14.800Z,19.91
2018-06-29T02:49:14.983Z,19.95
2018-06-29T02:50:15.167Z,19.96
2018-06-29T02:51:15.346Z,19.77
2018-06-29T02:52:15.536Z,19.71
2018-06-29T02:53:15.709Z,19.59
2018-06-29T02:54:15.914Z,19.59
2018-06-29T02:55:16.074Z,19.59
2018-06-29T02:56:16.258Z,19.59
2018-06-29T02:57:16.444Z,19.54
2018-06-29T02:58:16.621Z,19.47
2018-06-29T02:59:16.804Z,19.62
2018-06-29T03:00:16.995Z,19.64
2018-06-29T03:01:17.172Z,19.62
2018-06-29T03:02:17.348Z,19.71
2018-06-29T03:03:17.537Z,19.81
2018-06-29T03:04:17.719Z,19.79
2018-06-29T03:05:17.905Z,19.77
2018-06-29T03:06:18.098Z,19.82
2018-06-29T03:07:18.266Z,19.95
2018-06-29T03:08:18.445Z,19.89
2018-06-29T03:09:18.635Z,19.88
2018-06-29T03:10:18.805Z,19.88
2018-06-29T03:11:19.000Z,19.88
2018-06-29T03:12:19.167Z,19.88
2018-06-29T03:13:19.349Z,19.77
2018-06-29T03:14:19.568Z,19.71
2018-06-29T03:15:19.717Z,19.71
2018-06-29T03:16:20.140Z,19.76
2018-06-29T03:17:20.081Z,19.73
2018-06-29T03:18:20.262Z,19.63
2018-06-29T03:19:20.442Z,19.51
2018-06-29T03:20:20.641Z,19.52
2018-06-29T03:21:20.807Z,19.37
2018-06-29T03:22:20.984Z,19.39
2018-06-29T03:23:21.172Z,19.41
2018-06-29T03:24:21.363Z,19.45
2018-06-29T03:25:21.532Z,19.51
2018-06-29T03:27:21.895Z,19.47
2018-06-29T03:28:22.078Z,19.52
2018-06-29T03:29:22.262Z,19.52
2018-06-29T03:30:22.445Z,19.45
2018-06-29T03:31:22.634Z,19.44
2018-06-29T03:32:22.809Z,19.49
2018-06-29T03:33:22.992Z,19.54
2018-06-29T03:34:23.176Z,19.52
2018-06-29T03:35:23.355Z,19.49
2018-06-29T03:36:23.542Z,19.48
2018-06-29T03:37:23.731Z,19.48
2018-06-29T03:38:23.908Z,19.51
2018-06-29T03:39:24.081Z,19.48
2018-06-29T03:40:24.385Z,19.52
2018-06-29T03:41:24.443Z,19.54
2018-06-29T03:42:24.637Z,19.52
2018-06-29T03:43:24.813Z,19.59
2018-06-29T03:44:25.020Z,19.56
2018-06-29T03:45:25.183Z,19.58
2018-06-29T03:46:25.357Z,19.40
2018-06-29T03:47:25.540Z,19.37
2018-06-29T03:48:25.721Z,19.44
2018-06-29T03:49:25.962Z,19.39
2018-06-29T03:50:26.092Z,19.44
2018-06-29T03:51:26.272Z,19.45
2018-06-29T03:52:26.454Z,19.45
2018-06-29T03:53:26.635Z,19.34
2018-06-29T03:54:26.819Z,19.30
2018-06-29T03:55:26.997Z,19.33
2018-06-29T03:56:27.181Z,19.40
2018-06-29T03:57:27.366Z,19.36
2018-06-29T03:58:27.544Z,19.40
2018-06-29T03:59:27.723Z,19.41
2018-06-29T04:01:28.080Z,19.44
2018-06-29T04:02:28.264Z,19.48
2018-06-29T04:03:28.452Z,19.64
2018-06-29T04:04:28.628Z,19.63
2018-06-29T04:05:28.836Z,19.62
2018-06-29T04:06:29.015Z,19.66
2018-06-29T04:07:29.193Z,19.71
2018-06-29T04:08:29.373Z,19.77
2018-06-29T04:09:29.556Z,19.67
2018-06-29T04:10:29.743Z,19.64
2018-06-29T04:11:29.933Z,19.64
2018-06-29T04:12:30.118Z,19.49
2018-06-29T04:13:30.327Z,19.62
2018-06-29T04:14:30.532Z,19.62
2018-06-29T04:15:30.665Z,19.69
2018-06-29T04:16:30.847Z,20.06
2018-06-29T04:17:31.037Z,20.74
2018-06-29T04:18:31.211Z,21.60
2018-06-29T04:19:31.395Z,22.10
2018-06-29T04:20:31.598Z,22.44
2018-06-29T04:21:31.746Z,22.47
2018-06-29T04:22:31.929Z,22.51
2018-06-29T04:23:32.117Z,22.85
2018-06-29T04:24:32.298Z,23.03
2018-06-29T04:25:32.478Z,23.55
2018-06-29T04:26:32.690Z,23.98
2018-06-29T04:27:32.841Z,24.17
2018-06-29T04:28:33.029Z,24.54
2018-06-29T04:29:33.212Z,24.80
2018-06-29T04:30:33.401Z,25.08
2018-06-29T04:31:33.592Z,25.40
2018-06-29T04:32:33.773Z,25.80
2018-06-29T04:33:33.953Z,25.75
2018-06-29T04:34:34.145Z,25.96
2018-06-29T04:35:34.326Z,26.19
2018-06-29T04:36:34.521Z,26.19
2018-06-29T04:37:34.710Z,25.80
2018-06-29T04:38:34.892Z,25.87
2018-06-29T04:39:35.076Z,25.91
2018-06-29T04:40:35.275Z,25.87
2018-06-29T04:41:35.457Z,25.68
2018-06-29T04:42:35.638Z,25.63
2018-06-29T04:43:35.848Z,25.77
2018-06-29T04:44:36.018Z,26.19
2018-06-29T04:45:36.446Z,26.48
2018-06-29T04:46:36.388Z,26.51
2018-06-29T04:47:36.576Z,26.21
2018-06-29T04:48:36.768Z,26.19
2018-06-29T04:49:36.957Z,26.19
2018-06-29T04:50:37.159Z,26.33
2018-06-29T04:51:37.324Z,26.80
2018-06-29T04:52:37.509Z,26.74
2018-06-29T04:53:37.693Z,27.14
2018-06-29T04:54:37.884Z,27.58
2018-06-29T04:55:38.313Z,27.73
2018-06-29T04:56:38.260Z,27.86
2018-06-29T04:57:38.449Z,28.27
2018-06-29T04:58:38.644Z,28.33
2018-06-29T04:59:38.833Z,28.44
2018-06-29T05:00:39.016Z,28.54
2018-06-29T05:01:39.210Z,28.97
2018-06-29T05:02:39.400Z,28.70
2018-06-29T05:03:39.585Z,28.63
2018-06-29T05:04:39.774Z,28.69
2018-06-29T05:05:39.976Z,28.89
2018-06-29T05:06:40.147Z,28.89
2018-06-29T05:07:40.354Z,28.64
2018-06-29T05:08:40.545Z,28.76
2018-06-29T05:09:40.721Z,28.05
2018-06-29T05:10:40.910Z,28.10
2018-06-29T05:11:41.102Z,28.37
2018-06-29T05:12:41.293Z,27.51
2018-06-29T05:13:41.487Z,27.70
2018-06-29T05:14:41.680Z,26.90
2018-06-29T05:15:41.859Z,27.36
2018-06-29T05:16:42.302Z,27.59
2018-06-29T05:17:42.234Z,28.17
2018-06-29T05:18:42.432Z,28.75
2018-06-29T05:19:42.580Z,28.74
2018-06-29T05:20:42.783Z,28.98
2018-06-29T05:21:42.938Z,29.36
2018-06-29T05:22:43.110Z,29.19
2018-06-29T05:23:43.317Z,29.53
2018-06-29T05:24:43.489Z,29.78
2018-06-29T05:25:43.688Z,29.82
2018-06-29T05:26:43.864Z,29.87
2018-06-29T05:27:44.043Z,29.78
2018-06-29T05:28:44.252Z,29.94
2018-06-29T05:29:44.458Z,29.81
2018-06-29T05:30:44.628Z,29.47
2018-06-29T05:31:44.826Z,29.45
2018-06-29T05:32:45.038Z,29.76
2018-06-29T05:33:45.234Z,29.32
2018-06-29T05:34:45.431Z,28.84
2018-06-29T05:35:45.650Z,29.32
2018-06-29T05:36:45.822Z,29.16
2018-06-29T05:37:46.240Z,29.19
2018-06-29T05:38:46.205Z,29.23
2018-06-29T05:39:46.407Z,29.38
2018-06-29T05:40:46.619Z,28.78
2018-06-29T05:41:46.851Z,28.84
2018-06-29T05:42:47.088Z,28.26
2018-06-29T05:43:47.188Z,28.45
2018-06-29T05:44:47.385Z,28.75
2018-06-29T05:45:47.576Z,29.07
2018-06-29T05:46:47.789Z,29.22
2018-06-29T05:47:47.958Z,29.66
2018-06-29T05:48:48.151Z,29.68
2018-06-29T05:49:48.342Z,29.23
2018-06-29T05:50:48.531Z,29.72
2018-06-29T05:51:48.729Z,30.03
2018-06-29T05:52:48.937Z,30.13
2018-06-29T05:53:49.130Z,30.37
2018-06-29T05:54:49.310Z,29.90
2018-06-29T05:55:49.504Z,28.62
2018-06-29T05:56:49.705Z,28.82
2018-06-29T05:57:49.890Z,27.64
2018-06-29T05:58:50.085Z,27.68
2018-06-29T05:59:50.279Z,28.67
2018-06-29T06:00:50.475Z,28.97
2018-06-29T06:01:50.663Z,29.49
2018-06-29T06:02:50.870Z,27.98
2018-06-29T06:03:51.055Z,27.73
2018-06-29T06:04:51.254Z,27.92
2018-06-29T06:05:51.448Z,28.60
2018-06-29T06:06:51.642Z,29.22
2018-06-29T06:07:51.836Z,29.08
2018-06-29T06:08:52.034Z,29.38
2018-06-29T06:09:52.208Z,29.60
2018-06-29T06:10:52.426Z,29.86
2018-06-29T06:11:52.576Z,30.10
2018-06-29T06:12:52.773Z,30.21
2018-06-29T06:13:52.976Z,30.19
2018-06-29T06:14:53.168Z,30.35
2018-06-29T06:15:53.382Z,30.24
2018-06-29T06:16:53.549Z,30.73
2018-06-29T06:17:53.745Z,30.59
2018-06-29T06:18:53.946Z,30.87
2018-06-29T06:19:54.137Z,30.90
2018-06-29T06:20:54.370Z,30.78
2018-06-29T06:21:54.594Z,29.91
2018-06-29T06:22:54.728Z,30.03
2018-06-29T06:23:54.912Z,29.72
2018-06-29T06:24:55.106Z,29.69
2018-06-29T06:25:55.302Z,30.02
2018-06-29T06:26:55.487Z,30.40
2018-06-29T06:27:55.710Z,30.51
2018-06-29T06:28:55.875Z,30.92
2018-06-29T06:29:56.089Z,30.80
2018-06-29T06:30:56.284Z,30.73
2018-06-29T06:31:56.488Z,30.70
2018-06-29T06:32:56.651Z,31.06
2018-06-29T06:33:56.873Z,31.17
2018-06-29T06:34:57.043Z,31.47
2018-06-29T06:35:57.235Z,31.02
2018-06-29T06:36:57.407Z,31.36
2018-06-29T06:37:57.601Z,31.51
2018-06-29T06:38:57.792Z,31.64
2018-06-29T06:39:57.993Z,31.69
2018-06-29T06:40:58.184Z,30.91
2018-06-29T06:41:58.378Z,30.51
2018-06-29T06:42:58.576Z,30.54
2018-06-29T06:43:58.768Z,30.87
2018-06-29T06:44:58.987Z,30.75
2018-06-29T06:45:59.154Z,30.69
2018-06-29T06:46:59.377Z,31.27
2018-06-29T06:47:59.547Z,31.51
2018-06-29T06:48:59.981Z,31.62
2018-06-29T06:49:59.927Z,31.84
2018-06-29T06:51:00.137Z,31.81
2018-06-29T06:52:00.315Z,31.39
2018-06-29T06:53:00.513Z,31.17
2018-06-29T06:54:00.705Z,31.18
2018-06-29T06:55:00.894Z,31.33
2018-06-29T06:56:02.753Z,31.69
2018-06-29T06:57:01.666Z,31.93
2018-06-29T06:58:01.544Z,31.96
2018-06-29T06:59:01.727Z,32.22
2018-06-29T07:00:01.921Z,31.64
2018-06-29T07:01:02.108Z,31.52
2018-06-29T07:02:02.293Z,31.54
2018-06-29T07:03:02.481Z,31.66
2018-06-29T07:04:02.676Z,32.33
2018-06-29T07:05:02.870Z,32.15
2018-06-29T07:06:03.075Z,32.03
2018-06-29T07:07:03.258Z,31.94
2018-06-29T07:08:03.476Z,31.77
2018-06-29T07:09:03.631Z,32.04
2018-06-29T07:10:03.825Z,32.55
2018-06-29T07:11:04.007Z,31.05
2018-06-29T07:12:04.195Z,29.65
2018-06-29T07:13:04.380Z,29.84
2018-06-29T07:14:04.563Z,30.21
2018-06-29T07:15:04.750Z,30.59
2018-06-29T07:16:04.952Z,31.05
2018-06-29T07:17:05.139Z,31.54
2018-06-29T07:18:05.346Z,31.74
2018-06-29T07:19:05.529Z,31.93
2018-06-29T07:20:05.727Z,32.01
2018-06-29T07:21:05.956Z,30.61
2018-06-29T07:22:06.111Z,29.87
2018-06-29T07:23:06.302Z,30.47
2018-06-29T07:24:06.491Z,30.69
2018-06-29T07:25:06.687Z,30.87
2018-06-29T07:26:06.895Z,31.27
2018-06-29T07:27:07.057Z,31.10
2018-06-29T07:28:07.256Z,30.87
2018-06-29T07:29:07.433Z,29.49
2018-06-29T07:30:07.695Z,29.29
2018-06-29T07:31:07.833Z,29.73
2018-06-29T07:32:08.041Z,29.82
2018-06-29T07:33:08.230Z,29.91
2018-06-29T07:34:08.420Z,29.97
2018-06-29T07:35:08.629Z,30.25
2018-06-29T07:36:08.829Z,30.51
2018-06-29T07:37:08.997Z,30.37
2018-06-29T07:38:09.191Z,30.44
2018-06-29T07:39:09.397Z,30.78
2018-06-29T07:40:09.581Z,30.02
2018-06-29T07:41:09.763Z,28.78
2018-06-29T07:42:09.965Z,29.23
2018-06-29T07:43:10.128Z,29.63
2018-06-29T07:44:10.318Z,29.95
2018-06-29T07:45:10.518Z,30.55
2018-06-29T07:46:10.693Z,30.78
2018-06-29T07:47:10.882Z,30.70
2018-06-29T07:48:11.113Z,30.91
2018-06-29T07:49:11.310Z,31.10
2018-06-29T07:50:11.552Z,31.37
2018-06-29T07:51:11.629Z,31.21
2018-06-29T07:52:11.806Z,30.57
2018-06-29T07:53:11.967Z,30.55
2018-06-29T07:54:12.157Z,30.85
2018-06-29T07:55:12.374Z,30.59
2018-06-29T07:56:12.663Z,30.75
2018-06-29T07:57:12.715Z,30.18
2018-06-29T07:58:12.929Z,30.35
2018-06-29T07:59:13.072Z,30.37
2018-06-29T08:00:13.310Z,30.53
2018-06-29T08:01:13.496Z,29.60
2018-06-29T08:02:13.674Z,30.15
2018-06-29T08:03:14.108Z,30.46
2018-06-29T08:04:14.025Z,30.59
2018-06-29T08:05:14.219Z,28.14
2018-06-29T08:06:14.402Z,27.98
2018-06-29T08:07:14.557Z,28.85
2018-06-29T08:08:14.752Z,29.79
2018-06-29T08:09:14.927Z,29.16
2018-06-29T08:10:15.119Z,28.57
2018-06-29T08:11:15.285Z,28.27
2018-06-29T08:12:15.485Z,29.16
2018-06-29T08:14:15.870Z,30.34
2018-06-29T08:15:16.009Z,29.97
2018-06-29T08:16:16.215Z,30.00
2018-06-29T08:17:16.386Z,30.51
2018-06-29T08:18:16.578Z,29.61
2018-06-29T08:19:16.754Z,28.51
2018-06-29T08:20:16.928Z,28.79
2018-06-29T08:21:17.111Z,28.63
2018-06-29T08:22:17.310Z,29.23
2018-06-29T08:23:17.509Z,29.91
2018-06-29T08:24:17.696Z,30.10
2018-06-29T08:25:17.852Z,29.82
2018-06-29T08:26:18.036Z,29.86
2018-06-29T08:27:18.490Z,29.22
2018-06-29T08:28:18.403Z,29.81
2018-06-29T08:29:18.567Z,30.19
2018-06-29T08:30:18.760Z,30.53
2018-06-29T08:31:18.934Z,30.43
2018-06-29T08:32:19.134Z,30.92
2018-06-29T08:33:19.280Z,31.46
2018-06-29T08:34:19.462Z,31.33
2018-06-29T08:35:19.641Z,30.12
2018-06-29T08:36:19.827Z,29.47
2018-06-29T08:37:20.033Z,29.72
2018-06-29T08:38:20.176Z,30.19
2018-06-29T08:39:20.354Z,30.39
2018-06-29T08:40:20.549Z,30.44
2018-06-29T08:41:20.748Z,30.18
2018-06-29T08:42:21.075Z,30.43
2018-06-29T08:43:21.178Z,30.88
2018-06-29T08:45:21.517Z,30.80
2018-06-29T08:46:21.722Z,31.14
2018-06-29T08:47:21.911Z,31.22
2018-06-29T08:48:22.080Z,30.78
2018-06-29T08:49:22.283Z,29.91
2018-06-29T08:50:22.468Z,30.03
2018-06-29T08:51:22.663Z,30.28
2018-06-29T08:52:22.828Z,30.55
2018-06-29T08:53:23.007Z,30.65
2018-06-29T08:54:23.188Z,30.32
2018-06-29T08:55:23.374Z,30.40
2018-06-29T08:56:23.559Z,30.62
2018-06-29T08:57:23.750Z,30.65
2018-06-29T08:58:23.914Z,30.88
2018-06-29T08:59:24.096Z,31.36
2018-06-29T09:00:24.319Z,31.02
2018-06-29T09:01:24.516Z,31.03
2018-06-29T09:02:24.694Z,31.15
2018-06-29T09:03:24.888Z,30.75
2018-06-29T09:04:25.074Z,30.81
2018-06-29T09:05:25.235Z,30.13
2018-06-29T09:06:25.430Z,30.48
2018-06-29T09:07:25.622Z,30.43
2018-06-29T09:08:25.789Z,30.69
2018-06-29T09:09:25.955Z,30.61
2018-06-29T09:10:26.179Z,30.88
2018-06-29T09:11:26.343Z,30.25
2018-06-29T09:12:26.573Z,30.21
2018-06-29T09:13:26.746Z,29.61
2018-06-29T09:14:26.908Z,28.57
2018-06-29T09:15:27.165Z,27.98
2018-06-29T09:16:27.272Z,28.15
2018-06-29T09:17:27.456Z,28.42
2018-06-29T09:18:27.647Z,28.56
2018-06-29T09:19:27.826Z,29.27
2018-06-29T09:20:28.003Z,29.75
2018-06-29T09:21:28.196Z,30.21
2018-06-29T09:22:28.697Z,30.57
2018-06-29T09:23:28.531Z,30.44
2018-06-29T09:24:28.865Z,29.95
2018-06-29T09:25:28.937Z,29.90
2018-06-29T09:26:29.146Z,30.13
2018-06-29T09:27:29.367Z,30.25
2018-06-29T09:28:29.526Z,30.00
2018-06-29T09:29:30.016Z,30.10
2018-06-29T09:30:29.892Z,30.18
2018-06-29T09:31:30.072Z,30.40
2018-06-29T09:32:30.252Z,30.43
2018-06-29T09:33:30.449Z,30.43
2018-06-29T09:34:30.640Z,30.27
2018-06-29T09:35:30.838Z,30.19
2018-06-29T09:36:31.014Z,30.39
2018-06-29T09:37:31.199Z,30.30
2018-06-29T09:38:31.390Z,30.44
2018-06-29T09:39:31.576Z,30.30
2018-06-29T09:40:31.798Z,30.19
2018-06-29T09:41:31.950Z,29.17
2018-06-29T09:42:32.154Z,29.51
2018-06-29T09:43:32.598Z,29.36
2018-06-29T09:44:32.531Z,29.49
2018-06-29T09:45:32.719Z,29.63
2018-06-29T09:46:32.903Z,29.68
2018-06-29T09:47:33.085Z,29.75
2018-06-29T09:48:33.270Z,29.36
2018-06-29T09:49:33.460Z,29.49
2018-06-29T09:50:33.907Z,29.59
2018-06-29T09:51:33.850Z,29.54
2018-06-29T09:52:34.060Z,29.59
2018-06-29T09:53:34.251Z,29.90
2018-06-29T09:54:34.428Z,28.96
2018-06-29T09:55:34.627Z,28.27
2018-06-29T09:56:34.790Z,27.37
2018-06-29T09:57:34.979Z,27.39
2018-06-29T09:58:35.176Z,27.89
2018-06-29T09:59:35.349Z,28.35
2018-06-29T10:00:35.544Z,28.15
2018-06-29T10:01:35.735Z,27.39
2018-06-29T10:02:39.276Z,27.67
2018-06-29T10:03:36.107Z,27.36
2018-06-29T10:04:36.324Z,27.58
2018-06-29T10:05:36.475Z,27.93
2018-06-29T10:06:36.654Z,28.37
2018-06-29T10:07:36.848Z,28.54
2018-06-29T10:08:37.034Z,28.05
2018-06-29T10:09:37.202Z,28.56
2018-06-29T10:10:37.396Z,28.75
2018-06-29T10:11:37.568Z,29.02
2018-06-29T10:12:37.756Z,29.13
2018-06-29T10:13:37.927Z,29.22
2018-06-29T10:14:38.119Z,29.39
2018-06-29T10:15:38.301Z,29.63
2018-06-29T10:16:38.559Z,29.84
2018-06-29T10:17:38.654Z,30.02
2018-06-29T10:18:38.919Z,30.30
2018-06-29T10:19:39.171Z,30.59
2018-06-29T10:20:39.255Z,30.54
2018-06-29T10:21:39.434Z,30.03
2018-06-29T10:22:39.613Z,30.10
2018-06-29T10:23:39.774Z,29.51
2018-06-29T10:24:39.960Z,29.20
2018-06-29T10:25:40.139Z,29.23
2018-06-29T10:26:40.333Z,29.54
2018-06-29T10:27:40.516Z,29.87
2018-06-29T10:28:40.698Z,30.16
2018-06-29T10:29:40.887Z,30.47
2018-06-29T10:30:41.121Z,29.90
2018-06-29T10:31:41.272Z,29.10
2018-06-29T10:32:41.456Z,28.93
2018-06-29T10:33:41.656Z,28.79
2018-06-29T10:34:41.842Z,28.64
2018-06-29T10:35:42.018Z,28.93
2018-06-29T10:36:42.238Z,28.54
2018-06-29T10:37:42.390Z,28.86
2018-06-29T10:38:42.622Z,29.12
2018-06-29T10:39:42.775Z,29.29
2018-06-29T10:40:42.947Z,29.79
2018-06-29T10:41:43.391Z,30.05
2018-06-29T10:42:43.319Z,30.23
2018-06-29T10:43:43.522Z,30.39
2018-06-29T10:44:43.724Z,30.18
2018-06-29T10:46:44.039Z,30.63
2018-06-29T10:47:44.217Z,30.70
2018-06-29T10:48:44.402Z,31.09
2018-06-29T10:49:44.602Z,30.08
2018-06-29T10:50:44.792Z,29.76
2018-06-29T10:51:44.976Z,29.75
2018-06-29T10:52:45.203Z,29.53
2018-06-29T10:53:45.356Z,29.41
2018-06-29T10:54:45.541Z,29.34
2018-06-29T10:55:45.738Z,28.75
2018-06-29T10:56:45.928Z,28.29
2018-06-29T10:57:46.105Z,28.20
2018-06-29T10:58:46.389Z,28.41
2018-06-29T10:59:46.490Z,28.56
2018-06-29T11:00:46.649Z,28.44
2018-06-29T11:01:46.837Z,28.67
2018-06-29T11:02:47.017Z,28.32
2018-06-29T11:03:47.202Z,28.48
2018-06-29T11:04:47.389Z,28.74
2018-06-29T11:05:47.585Z,28.91
2018-06-29T11:06:48.121Z,28.54
2018-06-29T11:07:47.944Z,28.91
2018-06-29T11:08:48.133Z,29.19
2018-06-29T11:09:48.296Z,29.20
2018-06-29T11:10:48.507Z,29.39
2018-06-29T11:11:48.659Z,29.73
2018-06-29T11:12:48.825Z,30.12
2018-06-29T11:13:49.055Z,29.22
2018-06-29T11:14:49.237Z,28.76
2018-06-29T11:15:49.430Z,28.54
2018-06-29T11:16:49.628Z,28.49
2018-06-29T11:17:49.801Z,28.42
2018-06-29T11:18:49.988Z,28.85
2018-06-29T11:19:50.154Z,29.01
2018-06-29T11:20:50.340Z,28.57
2018-06-29T11:21:50.527Z,28.88
2018-06-29T11:22:50.702Z,29.17
2018-06-29T11:23:50.872Z,28.56
2018-06-29T11:24:51.058Z,28.69
2018-06-29T11:25:51.253Z,29.08
2018-06-29T11:26:51.441Z,29.27
2018-06-29T11:27:51.616Z,29.61
2018-06-29T11:28:51.802Z,29.73
2018-06-29T11:29:51.996Z,29.63
2018-06-29T11:30:52.503Z,29.14
2018-06-29T11:31:52.412Z,28.74
2018-06-29T11:32:52.593Z,28.27
2018-06-29T11:33:52.804Z,28.07
2018-06-29T11:34:52.953Z,28.48
2018-06-29T11:35:53.125Z,28.84
2018-06-29T11:36:53.356Z,28.78
2018-06-29T11:37:53.466Z,28.97
2018-06-29T11:38:53.658Z,29.24
2018-06-29T11:39:53.853Z,29.60
2018-06-29T11:40:54.050Z,29.79
2018-06-29T11:41:54.237Z,29.45
2018-06-29T11:42:54.411Z,29.35
2018-06-29T11:43:54.583Z,29.66
2018-06-29T11:44:54.748Z,29.86
2018-06-29T11:45:54.930Z,30.03
2018-06-29T11:46:55.118Z,30.08
2018-06-29T11:47:55.448Z,30.24
2018-06-29T11:48:55.534Z,30.24
2018-06-29T11:49:55.695Z,30.08
2018-06-29T11:50:55.889Z,29.56
2018-06-29T11:51:56.071Z,29.39
2018-06-29T11:52:56.263Z,29.19
2018-06-29T11:53:56.449Z,29.50
2018-06-29T11:54:56.654Z,29.32
2018-06-29T11:55:56.817Z,29.38
2018-06-29T11:56:57.008Z,29.49
2018-06-29T11:57:57.194Z,29.60
2018-06-29T11:58:57.382Z,29.75
2018-06-29T11:59:57.574Z,29.75
2018-06-29T12:00:57.759Z,29.84
2018-06-29T12:01:57.944Z,29.76
2018-06-29T12:02:58.132Z,28.76
2018-06-29T12:03:58.322Z,28.30
2018-06-29T12:04:58.519Z,28.75
2018-06-29T12:05:58.695Z,29.02
2018-06-29T12:06:58.892Z,29.29
2018-06-29T12:07:59.076Z,29.35
2018-06-29T12:08:59.262Z,29.32
2018-06-29T12:09:59.451Z,28.85
2018-06-29T12:10:59.641Z,29.10
2018-06-29T12:11:59.827Z,29.32
2018-06-29T12:13:00.001Z,29.44
2018-06-29T12:14:00.192Z,29.53
2018-06-29T12:15:00.435Z,29.63
2018-06-29T12:16:00.552Z,29.87
2018-06-29T12:17:00.745Z,30.00
2018-06-29T12:18:00.933Z,30.16
2018-06-29T12:19:01.124Z,30.19
2018-06-29T12:20:01.321Z,30.54
2018-06-29T12:21:01.493Z,30.61
2018-06-29T12:22:01.689Z,30.19
2018-06-29T12:23:01.869Z,29.90
2018-06-29T12:24:02.055Z,29.20
2018-06-29T12:25:02.247Z,29.54
2018-06-29T12:26:02.433Z,29.65
2018-06-29T12:27:02.625Z,29.38
2018-06-29T12:28:02.909Z,29.53
2018-06-29T12:29:03.007Z,29.61
2018-06-29T12:30:03.210Z,29.31
2018-06-29T12:31:03.384Z,29.61
2018-06-29T12:32:03.572Z,29.88
2018-06-29T12:33:03.762Z,29.90
2018-06-29T12:34:03.931Z,29.95
2018-06-29T12:35:04.125Z,30.13
2018-06-29T12:36:04.298Z,29.79
2018-06-29T12:37:04.488Z,29.53
2018-06-29T12:38:04.764Z,29.29
2018-06-29T12:39:04.875Z,29.44
2018-06-29T12:40:05.057Z,29.79
2018-06-29T12:41:05.245Z,29.49
2018-06-29T12:42:05.472Z,29.16
2018-06-29T12:43:05.625Z,29.24
2018-06-29T12:44:05.804Z,29.27
2018-06-29T12:45:06.008Z,29.44
2018-06-29T12:46:06.205Z,29.27
2018-06-29T12:47:06.360Z,29.51
2018-06-29T12:48:06.546Z,29.79
2018-06-29T12:49:06.736Z,30.03
2018-06-29T12:50:06.926Z,30.10
2018-06-29T12:51:07.111Z,30.40
2018-06-29T12:52:07.301Z,29.97
2018-06-29T12:53:07.492Z,30.05
2018-06-29T12:54:07.682Z,30.40
2018-06-29T12:55:07.857Z,30.65
2018-06-29T12:56:08.045Z,30.35
2018-06-29T12:57:08.235Z,30.55
2018-06-29T12:58:08.430Z,30.59
2018-06-29T12:59:08.634Z,30.70
2018-06-29T13:00:08.806Z,30.81